Time;durP1;ratioP1;P1;durP2;ratioP2;P2;SDS_P1;SDS_P2;PMS_P1;PMS_P2;Temp;Humidity;BMP_temperature;BMP_pressure;BME280_temperature;BME280_humidity;BME280_pressure;Samples;Min_cycle;Max_cycle;Signal;HPM_P1;HPM_P2
2023/12/16 06:01:19;;;;;;;;;;;;;;;;;;5625443;23;20333;-54
2023/12/16 06:03:45;;;;;;;;;;;;;;;;;;4932897;29;20381;-55
2023/12/16 06:06:11;;;;;;;;;;;;;;;;;;4932873;29;19930;-52
2023/12/16 06:08:37;;;;;;;;;;;;;;;;;;4931831;29;19910;-52
2023/12/16 06:11:03;;;;;;;;;;;;;;;;;;4952934;29;20008;-53
2023/12/16 06:13:29;;;;;;;;;;;;;;;;;;4953071;29;20415;-51
2023/12/16 06:15:55;;;;;;;;;;;;;;;;;;4952054;29;19914;-53
2023/12/16 06:18:21;;;;;;;;;;;;;;;;;;4953356;29;19918;-52
2023/12/16 06:20:46;;;;;;;;;;;;;;;;;;4952066;29;19910;-52
2023/12/16 06:23:12;;;;;;;;;;;;;;;;;;4952865;29;20371;-52
2023/12/16 06:25:38;;;;;;;;;;;;;;;;;;4952622;29;19910;-51
2023/12/16 06:28:04;;;;;;;;;;;;;;;;;;4952606;29;20381;-53
2023/12/16 06:30:30;;;;;;;;;;;;;;;;;;4951749;29;19918;-51
2023/12/16 06:32:56;;;;;;;;;;;;;;;;;;4950668;29;19921;-52
2023/12/16 06:35:22;;;;;;;;;;;;;;;;;;4953245;29;19957;-53
2023/12/16 06:37:47;;;;;;;;;;;;;;;;;;4952630;29;19911;-52
2023/12/16 06:40:13;;;;;;;;;;;;;;;;;;4952877;29;20366;-53
2023/12/16 06:42:39;;;;;;;;;;;;;;;;;;4951701;29;20002;-53
2023/12/16 06:45:05;;;;;;;;;;;;;;;;;;4952736;29;20305;-53
2023/12/16 06:47:31;;;;;;;;;;;;;;;;;;4952602;29;19922;-50
2023/12/16 06:49:57;;;;;;;;;;;;;;;;;;4952706;29;20053;-52
2023/12/16 06:52:23;;;;;;;;;;;;;;;;;;4951786;29;19918;-53
2023/12/16 06:54:49;;;;;;;;;;;;;;;;;;4952588;29;19922;-52
2023/12/16 06:57:14;;;;;;;;;;;;;;;;;;4952407;29;19915;-52
2023/12/16 06:59:40;;;;;;;;;;;;;;;;;;4952677;29;20345;-53
2023/12/16 07:02:06;;;;;;;;;;;;;;;;;;4947671;29;20017;-54
2023/12/16 07:04:32;;;;;;;;;;;;;;;;;;4949207;29;20395;-52
2023/12/16 07:06:58;;;;;;;;;;;;;;;;;;4949652;29;19933;-53
2023/12/16 07:09:24;;;;;;;;;;;;;;;;;;4947293;29;20333;-53
2023/12/16 07:11:50;;;;;;;;;;;;;;;;;;4952526;29;19917;-53
2023/12/16 07:14:16;;;;;;;;;;;;;;;;;;4951262;29;20005;-53
2023/12/16 07:16:42;;;;;;;;;;;;;;;;;;4948974;29;20289;-52
2023/12/16 07:19:08;;;;;;;;;;;;;;;;;;4952514;29;19911;-53
2023/12/16 07:21:34;;;;;;;;;;;;;;;;;;4952592;29;19918;-53
2023/12/16 07:24:00;;;;;;;;;;;;;;;;;;4952175;29;19911;-50
2023/12/16 07:26:25;;;;;;;;;;;;;;;;;;4938285;29;19926;-51
2023/12/16 07:28:51;;;;;;;;;;;;;;;;;;4935638;29;19918;-50
2023/12/16 07:31:17;;;;;;;;;;;;;;;;;;4933176;29;19911;-52
2023/12/16 07:33:43;;;;;;;;;;;;;;;;;;4935330;29;19989;-53
2023/12/16 07:36:09;;;;;;;;;;;;;;;;;;4932954;29;19962;-54
2023/12/16 07:38:35;;;;;;;;;;;;;;;;;;4932758;29;20382;-55
2023/12/16 07:41:01;;;;;;;;;;;;;;;;;;4933267;29;19911;-54
2023/12/16 07:43:26;;;;;;;;;;;;;;;;;;4942720;29;20274;-55
2023/12/16 07:45:52;;;;;;;;;;;;;;;;;;4952291;29;19914;-53
2023/12/16 07:48:18;;;;;;;;;;;;;;;;;;4951818;29;20397;-55
2023/12/16 07:50:44;;;;;;;;;;;;;;;;;;4943826;29;19920;-54
2023/12/16 07:53:10;;;;;;;;;;;;;;;;;;4935723;29;20389;-54
2023/12/16 07:55:36;;;;;;;;;;;;;;;;;;4933091;29;19993;-54
2023/12/16 07:58:02;;;;;;;;;;;;;;;;;;4932739;29;19937;-55
2023/12/16 08:00:28;;;;;;;;;;;;;;;;;;4932871;29;20389;-55
2023/12/16 08:02:54;;;;;;;;;;;;;;;;;;4937197;29;19969;-55
2023/12/16 08:05:20;;;;;;;;;;;;;;;;;;4951962;29;19911;-55
2023/12/16 08:07:46;;;;;;;;;;;;;;;;;;4951440;29;19914;-52
2023/12/16 08:10:12;;;;;;;;;;;;;;;;;;4941494;28;19915;-54
2023/12/16 08:12:38;;;;;;;;;;;;;;;;;;4940475;29;20349;-54
2023/12/16 08:15:04;;;;;;;;;;;;;;;;;;4941938;29;19958;-55
2023/12/16 08:17:30;;;;;;;;;;;;;;;;;;4934893;29;20820;-54
2023/12/16 08:19:56;;;;;;;;;;;;;;;;;;4935755;29;19922;-53
2023/12/16 08:22:22;;;;;;;;;;;;;;;;;;4949492;29;19950;-52
2023/12/16 08:24:47;;;;;;;;;;;;;;;;;;4952715;29;20372;-53
2023/12/16 08:27:13;;;;;;;;;;;;;;;;;;4954857;29;20278;-54
2023/12/16 08:29:40;;;;;;;;;;;;;;;;;;4955027;29;19911;-54
2023/12/16 08:32:06;;;;;;;;;;;;;;;;;;4930871;29;20401;-54
2023/12/16 08:34:33;;;;;;;;;;;;;;;;;;4935773;29;19918;-54
2023/12/16 08:36:59;;;;;;;;;;;;;;;;;;4937100;29;19999;-54
2023/12/16 08:39:25;;;;;;;;;;;;;;;;;;4937441;29;20030;-54
2023/12/16 08:41:51;;;;;;;;;;;;;;;;;;4935448;29;19922;-54
2023/12/16 08:44:17;;;;;;;;;;;;;;;;;;4945661;29;19918;-54
2023/12/16 08:46:43;;;;;;;;;;;;;;;;;;4937440;29;19962;-55
2023/12/16 08:49:09;;;;;;;;;;;;;;;;;;4924310;29;20366;-54
2023/12/16 08:51:35;;;;;;;;;;;;;;;;;;4938079;29;20014;-50
2023/12/16 08:54:01;;;;;;;;;;;;;;;;;;4943887;29;19914;-53
2023/12/16 08:56:27;;;;;;;;;;;;;;;;;;4942488;29;20493;-51
2023/12/16 08:58:52;;;;;;;;;;;;;;;;;;4938108;29;19914;-54
2023/12/16 09:01:19;;;;;;;;;;;;;;;;;;4934445;29;19922;-53
2023/12/16 09:03:45;;;;;;;;;;;;;;;;;;4945012;29;20867;-54
2023/12/16 09:06:11;;;;;;;;;;;;;;;;;;4935381;29;19954;-53
2023/12/16 09:08:36;;;;;;;;;;;;;;;;;;4935479;29;19966;-54
2023/12/16 09:11:02;;;;;;;;;;;;;;;;;;4938981;29;19998;-53
2023/12/16 09:13:28;;;;;;;;;;;;;;;;;;4935999;29;19910;-55
2023/12/16 09:15:54;;;;;;;;;;;;;;;;;;4945870;29;19922;-55
2023/12/16 09:18:20;;;;;;;;;;;;;;;;;;4940165;29;19997;-54
2023/12/16 09:20:46;;;;;;;;;;;;;;;;;;4935353;29;20223;-53
2023/12/16 09:23:12;;;;;;;;;;;;;;;;;;4938761;29;20002;-55
2023/12/16 09:25:38;;;;;;;;;;;;;;;;;;4921421;29;19957;-55
2023/12/16 09:28:04;;;;;;;;;;;;;;;;;;4935400;29;19969;-52
2023/12/16 09:30:30;;;;;;;;;;;;;;;;;;4935596;29;20478;-54
2023/12/16 09:32:55;;;;;;;;;;;;;;;;;;4933582;29;19925;-54
2023/12/16 09:35:21;;;;;;;;;;;;;;;;;;4924662;29;19914;-55
2023/12/16 09:37:47;;;;;;;;;;;;;;;;;;4940939;29;19915;-54
2023/12/16 09:40:13;;;;;;;;;;;;;;;;;;4935310;29;19910;-51
2023/12/16 09:42:39;;;;;;;;;;;;;;;;;;4941057;29;19911;-51
2023/12/16 09:45:05;;;;;;;;;;;;;;;;;;4938591;29;19919;-53
2023/12/16 09:47:31;;;;;;;;;;;;;;;;;;4916100;29;19919;-54
2023/12/16 09:49:59;;;;;;;;;;;;;;;;;;4930213;29;19911;-55
2023/12/16 09:52:25;;;;;;;;;;;;;;;;;;4916553;29;19922;-52
2023/12/16 09:54:51;;;;;;;;;;;;;;;;;;4944088;29;19914;-54
2023/12/16 09:57:17;;;;;;;;;;;;;;;;;;4943711;29;19978;-55
2023/12/16 09:59:43;;;;;;;;;;;;;;;;;;4935019;29;20352;-54
2023/12/16 10:02:09;;;;;;;;;;;;;;;;;;4934876;29;19919;-54
2023/12/16 10:04:35;;;;;;;;;;;;;;;;;;4940396;29;19923;-54
2023/12/16 10:07:01;;;;;;;;;;;;;;;;;;4934729;29;19915;-55
2023/12/16 10:09:27;;;;;;;;;;;;;;;;;;4934870;29;19910;-53
2023/12/16 10:11:56;;;;;;;;;;;;;;;;;;4935182;29;19911;-55
2023/12/16 10:14:22;;;;;;;;;;;;;;;;;;4936316;29;19921;-56
2023/12/16 10:16:48;;;;;;;;;;;;;;;;;;4951123;29;19915;-55
2023/12/16 10:19:14;;;;;;;;;;;;;;;;;;4949196;29;20320;-55
2023/12/16 10:21:39;;;;;;;;;;;;;;;;;;4952691;29;19910;-52
2023/12/16 10:24:05;;;;;;;;;;;;;;;;;;4951344;29;19918;-54
2023/12/16 10:26:31;;;;;;;;;;;;;;;;;;4953607;29;19918;-53
2023/12/16 10:28:57;;;;;;;;;;;;;;;;;;4953607;29;19918;-52
2023/12/16 10:31:24;;;;;;;;;;;;;;;;;;4953622;28;20002;-54
2023/12/16 10:33:50;;;;;;;;;;;;;;;;;;4949755;29;19925;-54
2023/12/16 10:36:16;;;;;;;;;;;;;;;;;;4953361;29;20416;-54
2023/12/16 10:38:42;;;;;;;;;;;;;;;;;;4953545;29;19911;-53
2023/12/16 10:41:12;;;;;;;;;;;;;;;;;;4953497;29;20333;-55
2023/12/16 10:43:38;;;;;;;;;;;;;;;;;;4952745;29;19982;-53
2023/12/16 10:46:06;;;;;;;;;;;;;;;;;;4951899;29;20001;-54
2023/12/16 10:48:32;;;;;;;;;;;;;;;;;;4953610;29;19910;-54
2023/12/16 10:50:58;;;;;;;;;;;;;;;;;;4941838;29;20408;-55
2023/12/16 10:53:24;;;;;;;;;;;;;;;;;;4934625;29;19911;-53
2023/12/16 10:55:52;;;;;;;;;;;;;;;;;;4948883;29;19915;-50
2023/12/16 10:58:18;;;;;;;;;;;;;;;;;;4949802;29;19921;-54
2023/12/16 11:00:44;;;;;;;;;;;;;;;;;;4953219;29;19923;-53
2023/12/16 11:03:09;;;;;;;;;;;;;;;;;;4953412;29;19911;-54
2023/12/16 11:05:36;;;;;;;;;;;;;;;;;;4936440;29;19919;-54
2023/12/16 11:08:02;;;;;;;;;;;;;;;;;;4939130;29;20316;-54
2023/12/16 11:10:28;;;;;;;;;;;;;;;;;;4953365;29;19911;-51
2023/12/16 11:12:54;;;;;;;;;;;;;;;;;;4950404;29;19967;-55
2023/12/16 11:15:20;;;;;;;;;;;;;;;;;;4947613;29;19961;-54
2023/12/16 11:17:46;;;;;;;;;;;;;;;;;;4929858;29;20342;-55
2023/12/16 11:20:12;;;;;;;;;;;;;;;;;;4931685;29;19910;-52
2023/12/16 11:22:38;;;;;;;;;;;;;;;;;;4943705;29;19915;-52
2023/12/16 11:25:04;;;;;;;;;;;;;;;;;;4951093;29;19911;-54
2023/12/16 11:27:30;;;;;;;;;;;;;;;;;;4951978;29;20046;-54
2023/12/16 11:29:56;;;;;;;;;;;;;;;;;;4951418;29;20382;-55
2023/12/16 11:32:22;;;;;;;;;;;;;;;;;;4932752;29;19911;-50
2023/12/16 11:34:51;;;;;;;;;;;;;;;;;;4945002;29;20392;-53
2023/12/16 11:37:17;;;;;;;;;;;;;;;;;;4933760;29;19910;-55
2023/12/16 11:39:45;;;;;;;;;;;;;;;;;;4946191;29;20433;-54
2023/12/16 11:42:11;;;;;;;;;;;;;;;;;;4931158;29;19943;-55
2023/12/16 11:44:37;;;;;;;;;;;;;;;;;;4939277;28;19929;-52
2023/12/16 11:47:02;;;;;;;;;;;;;;;;;;4940958;29;19919;-54
2023/12/16 11:49:28;;;;;;;;;;;;;;;;;;4952369;29;19945;-54
2023/12/16 11:51:54;;;;;;;;;;;;;;;;;;4927479;29;19962;-53
2023/12/16 11:54:20;;;;;;;;;;;;;;;;;;4935996;29;20277;-55
2023/12/16 11:56:46;;;;;;;;;;;;;;;;;;4939759;29;19961;-54
2023/12/16 11:59:12;;;;;;;;;;;;;;;;;;4948916;29;20395;-53
2023/12/16 12:01:38;;;;;;;;;;;;;;;;;;4947889;29;19919;-54
2023/12/16 12:04:04;;;;;;;;;;;;;;;;;;4938949;29;20035;-54
2023/12/16 12:06:30;;;;;;;;;;;;;;;;;;4939383;29;20526;-54
2023/12/16 12:08:56;;;;;;;;;;;;;;;;;;4933496;29;20358;-54
2023/12/16 12:11:22;;;;;;;;;;;;;;;;;;4938351;29;20259;-54
2023/12/16 12:13:50;;;;;;;;;;;;;;;;;;4954538;29;19926;-52
2023/12/16 12:16:16;;;;;;;;;;;;;;;;;;4954384;29;19949;-50
2023/12/16 12:18:42;;;;;;;;;;;;;;;;;;4946480;29;20105;-54
2023/12/16 12:21:08;;;;;;;;;;;;;;;;;;4952945;29;19910;-54
2023/12/16 12:23:34;;;;;;;;;;;;;;;;;;4954242;29;20301;-53
2023/12/16 12:26:03;;;;;;;;;;;;;;;;;;4937986;29;19914;-54
2023/12/16 12:28:29;;;;;;;;;;;;;;;;;;4932733;29;19919;-53
2023/12/16 12:30:55;;;;;;;;;;;;;;;;;;4941048;29;19933;-54
2023/12/16 12:33:21;;;;;;;;;;;;;;;;;;4948878;29;19922;-52
2023/12/16 12:35:47;;;;;;;;;;;;;;;;;;4937118;29;19914;-53
2023/12/16 12:38:15;;;;;;;;;;;;;;;;;;4953960;29;19965;-53
2023/12/16 12:40:41;;;;;;;;;;;;;;;;;;4953971;29;20281;-55
2023/12/16 12:43:07;;;;;;;;;;;;;;;;;;4953910;29;19910;-53
2023/12/16 12:45:33;;;;;;;;;;;;;;;;;;4950315;29;19915;-54
2023/12/16 12:47:58;;;;;;;;;;;;;;;;;;4935756;29;20435;-55
2023/12/16 12:50:25;;;;;;;;;;;;;;;;;;4939021;29;19973;-54
2023/12/16 12:52:51;;;;;;;;;;;;;;;;;;4953704;29;19910;-53
2023/12/16 12:55:18;;;;;;;;;;;;;;;;;;4953617;28;19998;-53
2023/12/16 12:57:45;;;;;;;;;;;;;;;;;;4953537;29;20349;-55
2023/12/16 13:00:11;;;;;;;;;;;;;;;;;;4952152;29;19941;-54
2023/12/16 13:02:37;;;;;;;;;;;;;;;;;;4953167;29;20286;-53
2023/12/16 13:05:02;;;;;;;;;;;;;;;;;;4954178;29;19965;-53
2023/12/16 13:07:28;;;;;;;;;;;;;;;;;;4953488;29;19922;-54
2023/12/16 13:09:54;;;;;;;;;;;;;;;;;;4949823;29;19922;-55
2023/12/16 13:12:21;;;;;;;;;;;;;;;;;;4953683;29;20017;-54
2023/12/16 13:14:47;;;;;;;;;;;;;;;;;;4935382;29;19911;-54
2023/12/16 13:17:13;;;;;;;;;;;;;;;;;;4950164;29;19918;-55
2023/12/16 13:19:39;;;;;;;;;;;;;;;;;;4935970;29;20374;-54
2023/12/16 13:22:05;;;;;;;;;;;;;;;;;;4951240;29;20013;-53
2023/12/16 13:24:31;;;;;;;;;;;;;;;;;;4933877;29;19911;-54
2023/12/16 13:26:57;;;;;;;;;;;;;;;;;;4934021;29;19973;-55
2023/12/16 13:29:23;;;;;;;;;;;;;;;;;;4941322;29;20448;-54
2023/12/16 13:31:49;;;;;;;;;;;;;;;;;;4950493;29;20017;-55
2023/12/16 13:34:15;;;;;;;;;;;;;;;;;;4939247;29;19926;-55
2023/12/16 13:36:41;;;;;;;;;;;;;;;;;;4933276;29;19974;-55
2023/12/16 13:39:07;;;;;;;;;;;;;;;;;;4932344;29;19949;-50
2023/12/16 13:41:34;;;;;;;;;;;;;;;;;;4930032;29;20378;-56
2023/12/16 13:44:00;;;;;;;;;;;;;;;;;;4931658;29;19911;-51
2023/12/16 13:46:26;;;;;;;;;;;;;;;;;;4931981;29;20428;-52
2023/12/16 13:48:52;;;;;;;;;;;;;;;;;;4941224;29;19921;-53
2023/12/16 13:51:18;;;;;;;;;;;;;;;;;;4950871;29;19960;-53
2023/12/16 13:53:43;;;;;;;;;;;;;;;;;;4950753;29;19915;-54
2023/12/16 13:56:09;;;;;;;;;;;;;;;;;;4945187;29;19915;-54
2023/12/16 13:58:35;;;;;;;;;;;;;;;;;;4945313;29;19926;-53
2023/12/16 14:01:01;;;;;;;;;;;;;;;;;;4948691;29;19957;-53
2023/12/16 14:03:27;;;;;;;;;;;;;;;;;;4950293;29;19911;-53
2023/12/16 14:05:53;;;;;;;;;;;;;;;;;;4943170;29;19923;-56
2023/12/16 14:08:19;;;;;;;;;;;;;;;;;;4930378;29;19956;-55
2023/12/16 14:10:45;;;;;;;;;;;;;;;;;;4931157;29;19946;-56
2023/12/16 14:13:11;;;;;;;;;;;;;;;;;;4931012;29;19911;-52
2023/12/16 14:15:37;;;;;;;;;;;;;;;;;;4930161;29;19918;-56
2023/12/16 14:18:03;;;;;;;;;;;;;;;;;;4928551;29;20013;-56
2023/12/16 14:20:30;;;;;;;;;;;;;;;;;;4930100;29;21478;-55
2023/12/16 14:22:56;;;;;;;;;;;;;;;;;;4936630;29;19966;-54
2023/12/16 14:25:22;;;;;;;;;;;;;;;;;;4948536;29;19915;-55
2023/12/16 14:27:49;;;;;;;;;;;;;;;;;;4949839;29;20101;-54
2023/12/16 14:30:16;;;;;;;;;;;;;;;;;;4933664;29;20274;-55
2023/12/16 14:32:42;;;;;;;;;;;;;;;;;;4944990;29;20409;-53
2023/12/16 14:35:10;;;;;;;;;;;;;;;;;;4949854;29;19926;-55
2023/12/16 14:37:36;;;;;;;;;;;;;;;;;;4946905;29;19968;-54
2023/12/16 14:40:02;;;;;;;;;;;;;;;;;;4928149;29;19922;-55
2023/12/16 14:42:27;;;;;;;;;;;;;;;;;;4941949;29;20404;-53
2023/12/16 14:44:53;;;;;;;;;;;;;;;;;;4950745;29;19917;-54
2023/12/16 14:47:19;;;;;;;;;;;;;;;;;;4945454;29;19926;-55
2023/12/16 14:49:47;;;;;;;;;;;;;;;;;;4939631;29;19961;-54
2023/12/16 14:52:13;;;;;;;;;;;;;;;;;;4938833;29;20021;-55
2023/12/16 14:54:39;;;;;;;;;;;;;;;;;;4950403;29;20077;-51
2023/12/16 14:57:05;;;;;;;;;;;;;;;;;;4950588;29;20001;-54
2023/12/16 14:59:31;;;;;;;;;;;;;;;;;;4950135;29;19910;-54
2023/12/16 15:01:57;;;;;;;;;;;;;;;;;;4930583;29;19975;-52
2023/12/16 15:04:22;;;;;;;;;;;;;;;;;;4938358;29;19977;-55
2023/12/16 15:06:48;;;;;;;;;;;;;;;;;;4949122;29;20005;-54
2023/12/16 15:09:14;;;;;;;;;;;;;;;;;;4949575;29;19910;-53
2023/12/16 15:11:41;;;;;;;;;;;;;;;;;;4943289;29;19915;-55
2023/12/16 15:14:07;;;;;;;;;;;;;;;;;;4927062;29;20334;-55
2023/12/16 15:16:33;;;;;;;;;;;;;;;;;;4929582;29;19915;-54
2023/12/16 15:18:59;;;;;;;;;;;;;;;;;;4930972;29;19914;-55
2023/12/16 15:21:25;;;;;;;;;;;;;;;;;;4933240;29;20022;-56
2023/12/16 15:23:51;;;;;;;;;;;;;;;;;;4934205;29;19938;-54
2023/12/16 15:26:17;;;;;;;;;;;;;;;;;;4952276;29;19957;-55
2023/12/16 15:28:43;;;;;;;;;;;;;;;;;;4935015;29;19914;-55
2023/12/16 15:31:08;;;;;;;;;;;;;;;;;;4943857;29;20333;-56
2023/12/16 15:33:34;;;;;;;;;;;;;;;;;;4932472;29;20013;-56
2023/12/16 15:36:00;;;;;;;;;;;;;;;;;;4932641;29;19911;-55
2023/12/16 15:38:26;;;;;;;;;;;;;;;;;;4932513;29;19911;-56
2023/12/16 15:40:52;;;;;;;;;;;;;;;;;;4932789;29;19911;-56
2023/12/16 15:43:18;;;;;;;;;;;;;;;;;;4933029;29;19981;-56
2023/12/16 15:45:44;;;;;;;;;;;;;;;;;;4933064;29;20349;-56
2023/12/16 15:48:10;;;;;;;;;;;;;;;;;;4915302;29;19946;-56
2023/12/16 15:50:36;;;;;;;;;;;;;;;;;;4931499;29;19911;-55
2023/12/16 15:53:03;;;;;;;;;;;;;;;;;;4931514;29;19922;-56
2023/12/16 15:55:29;;;;;;;;;;;;;;;;;;4930917;29;19917;-55
2023/12/16 15:57:55;;;;;;;;;;;;;;;;;;4931331;29;19914;-56
2023/12/16 16:00:21;;;;;;;;;;;;;;;;;;4871443;29;1773981;-56
2023/12/16 16:02:48;;;;;;;;;;;;;;;;;;4915729;29;19911;-54
2023/12/16 16:05:15;;;;;;;;;;;;;;;;;;4933248;29;20350;-57
2023/12/16 16:07:41;;;;;;;;;;;;;;;;;;4932066;29;19919;-56
2023/12/16 16:10:06;;;;;;;;;;;;;;;;;;4931971;29;19997;-54
2023/12/16 16:12:32;;;;;;;;;;;;;;;;;;4932341;29;19974;-55
2023/12/16 16:14:58;;;;;;;;;;;;;;;;;;4932353;29;20302;-55
2023/12/16 16:17:24;;;;;;;;;;;;;;;;;;4914748;29;20006;-56
2023/12/16 16:19:50;;;;;;;;;;;;;;;;;;4946422;29;19914;-54
2023/12/16 16:22:16;;;;;;;;;;;;;;;;;;4948430;29;19965;-55
2023/12/16 16:24:42;;;;;;;;;;;;;;;;;;4931827;29;19911;-54
2023/12/16 16:27:08;;;;;;;;;;;;;;;;;;4931833;29;20865;-51
2023/12/16 16:29:39;;;;;;;;;;;;;;;;;;4929853;29;19969;-55
2023/12/16 16:32:06;;;;;;;;;;;;;;;;;;4932301;29;19922;-55
2023/12/16 16:34:32;;;;;;;;;;;;;;;;;;4930996;29;19914;-55
2023/12/16 16:36:58;;;;;;;;;;;;;;;;;;4931633;29;20054;-54
2023/12/16 16:39:24;;;;;;;;;;;;;;;;;;4915532;29;20389;-54
2023/12/16 16:41:50;;;;;;;;;;;;;;;;;;4915875;29;19918;-55
2023/12/16 16:44:16;;;;;;;;;;;;;;;;;;4933474;29;19964;-52
2023/12/16 16:46:42;;;;;;;;;;;;;;;;;;4932490;29;19915;-55
2023/12/16 16:49:08;;;;;;;;;;;;;;;;;;4931781;29;20408;-54
2023/12/16 16:51:34;;;;;;;;;;;;;;;;;;4942161;29;19911;-54
2023/12/16 16:54:01;;;;;;;;;;;;;;;;;;4929904;29;19915;-55
2023/12/16 16:56:27;;;;;;;;;;;;;;;;;;4930621;29;20505;-55
2023/12/16 16:58:54;;;;;;;;;;;;;;;;;;4914488;29;19933;-54
2023/12/16 17:01:21;;;;;;;;;;;;;;;;;;4930990;29;19934;-54
2023/12/16 17:03:47;;;;;;;;;;;;;;;;;;4931853;29;20005;-54
2023/12/16 17:06:13;;;;;;;;;;;;;;;;;;4914473;29;20315;-54
2023/12/16 17:08:39;;;;;;;;;;;;;;;;;;4913988;29;19970;-55
2023/12/16 17:11:05;;;;;;;;;;;;;;;;;;4936569;29;20179;-54
2023/12/16 17:13:31;;;;;;;;;;;;;;;;;;4932992;29;19917;-54
2023/12/16 17:15:57;;;;;;;;;;;;;;;;;;4947958;29;19936;-52
2023/12/16 17:18:23;;;;;;;;;;;;;;;;;;4931048;29;19911;-54
2023/12/16 17:20:49;;;;;;;;;;;;;;;;;;4931068;29;19911;-54
2023/12/16 17:23:15;;;;;;;;;;;;;;;;;;4921127;29;20021;-54
2023/12/16 17:25:41;;;;;;;;;;;;;;;;;;4949486;29;19911;-54
2023/12/16 17:28:07;;;;;;;;;;;;;;;;;;4949863;29;20017;-55
2023/12/16 17:30:33;;;;;;;;;;;;;;;;;;4950054;29;19914;-53
2023/12/16 17:32:59;;;;;;;;;;;;;;;;;;4937971;29;19922;-51
2023/12/16 17:35:25;;;;;;;;;;;;;;;;;;4930564;29;20362;-54
2023/12/16 17:37:50;;;;;;;;;;;;;;;;;;4938040;29;19910;-52
2023/12/16 17:40:16;;;;;;;;;;;;;;;;;;4915357;29;20632;-55
2023/12/16 17:42:42;;;;;;;;;;;;;;;;;;4929589;28;19919;-54
2023/12/16 17:45:08;;;;;;;;;;;;;;;;;;4932044;29;20846;-56
2023/12/16 17:47:34;;;;;;;;;;;;;;;;;;4930232;29;19914;-53
2023/12/16 17:50:03;;;;;;;;;;;;;;;;;;4912873;29;19915;-53
2023/12/16 17:52:29;;;;;;;;;;;;;;;;;;4929345;29;19914;-55
2023/12/16 17:54:55;;;;;;;;;;;;;;;;;;4926562;29;19926;-54
2023/12/16 17:57:21;;;;;;;;;;;;;;;;;;4915832;29;20129;-55
2023/12/16 17:59:47;;;;;;;;;;;;;;;;;;4934001;29;20305;-52
2023/12/16 18:02:20;;;;;;;;;;;;;;;;;;5112511;27;19911;-53
2023/12/16 18:04:47;;;;;;;;;;;;;;;;;;5101419;27;19958;-52
2023/12/16 18:07:13;;;;;;;;;;;;;;;;;;5083875;28;20019;-51
2023/12/16 18:09:39;;;;;;;;;;;;;;;;;;5083779;28;20002;-53
2023/12/16 18:12:06;;;;;;;;;;;;;;;;;;5109484;28;19911;-51
2023/12/16 18:14:35;;;;;;;;;;;;;;;;;;5104722;27;19920;-50
2023/12/16 18:17:01;;;;;;;;;;;;;;;;;;5102436;28;20107;-53
2023/12/16 18:19:29;;;;;;;;;;;;;;;;;;5111947;28;19912;-54
2023/12/16 18:21:55;;;;;;;;;;;;;;;;;;5107527;28;19920;-53
2023/12/16 18:24:20;;;;;;;;;;;;;;;;;;5103667;28;19930;-51
2023/12/16 18:26:46;;;;;;;;;;;;;;;;;;5104200;28;19967;-53
2023/12/16 18:29:12;;;;;;;;;;;;;;;;;;5098195;28;20010;-53
2023/12/16 18:31:38;;;;;;;;;;;;;;;;;;5088752;28;19912;-51
2023/12/16 18:34:04;;;;;;;;;;;;;;;;;;5102754;28;20397;-53
2023/12/16 18:36:30;;;;;;;;;;;;;;;;;;5098298;28;19919;-52
2023/12/16 18:38:56;;;;;;;;;;;;;;;;;;5094288;28;19923;-53
2023/12/16 18:41:22;;;;;;;;;;;;;;;;;;5099692;28;19923;-52
2023/12/16 18:43:48;;;;;;;;;;;;;;;;;;5122462;27;19908;-54
2023/12/16 18:46:14;;;;;;;;;;;;;;;;;;5110734;28;19908;-53
2023/12/16 18:48:40;;;;;;;;;;;;;;;;;;5123506;27;19919;-53
2023/12/16 18:51:06;;;;;;;;;;;;;;;;;;5124510;27;19912;-52
2023/12/16 18:53:32;;;;;;;;;;;;;;;;;;5115810;27;19923;-52
2023/12/16 18:56:01;;;;;;;;;;;;;;;;;;5097571;28;19916;-52
2023/12/16 18:58:27;;;;;;;;;;;;;;;;;;5100907;28;19999;-53
2023/12/16 19:00:52;;;;;;;;;;;;;;;;;;5100018;28;20024;-53
2023/12/16 19:03:18;;;;;;;;;;;;;;;;;;5100116;28;19951;-50
2023/12/16 19:05:44;;;;;;;;;;;;;;;;;;5098656;28;19916;-53
2023/12/16 19:08:10;;;;;;;;;;;;;;;;;;5094760;28;19963;-51
2023/12/16 19:10:36;;;;;;;;;;;;;;;;;;5086583;28;20417;-52
2023/12/16 19:13:02;;;;;;;;;;;;;;;;;;5086337;28;19923;-52
2023/12/16 19:15:29;;;;;;;;;;;;;;;;;;5082303;28;21137;-54
2023/12/16 19:17:55;;;;;;;;;;;;;;;;;;5083730;28;19918;-53
2023/12/16 19:20:21;;;;;;;;;;;;;;;;;;5080476;28;19920;-53
2023/12/16 19:22:48;;;;;;;;;;;;;;;;;;5083154;28;19912;-53
2023/12/16 19:25:14;;;;;;;;;;;;;;;;;;5083310;28;19913;-53
2023/12/16 19:27:43;;;;;;;;;;;;;;;;;;5076130;28;19919;-54
2023/12/16 19:30:09;;;;;;;;;;;;;;;;;;5080119;28;20271;-54
2023/12/16 19:32:36;;;;;;;;;;;;;;;;;;5077628;28;19912;-53
2023/12/16 19:35:02;;;;;;;;;;;;;;;;;;5078402;28;19912;-54
2023/12/16 19:37:28;;;;;;;;;;;;;;;;;;5081789;28;19912;-54
2023/12/16 19:39:54;;;;;;;;;;;;;;;;;;5079969;28;19961;-54
2023/12/16 19:42:20;;;;;;;;;;;;;;;;;;5087212;28;20365;-52
2023/12/16 19:44:46;;;;;;;;;;;;;;;;;;5080986;28;19912;-52
2023/12/16 19:47:12;;;;;;;;;;;;;;;;;;5083987;28;19959;-51
2023/12/16 19:49:37;;;;;;;;;;;;;;;;;;5077020;28;20053;-53
2023/12/16 19:52:05;;;;;;;;;;;;;;;;;;5076512;28;20402;-53
2023/12/16 19:54:30;;;;;;;;;;;;;;;;;;5086987;28;20581;-53
2023/12/16 19:56:56;;;;;;;;;;;;;;;;;;5080642;28;19912;-52
2023/12/16 19:59:22;;;;;;;;;;;;;;;;;;5087596;28;19958;-54
2023/12/16 20:01:48;;;;;;;;;;;;;;;;;;5088430;28;19957;-54
2023/12/16 20:04:15;;;;;;;;;;;;;;;;;;5087196;28;19912;-54
2023/12/16 20:06:41;;;;;;;;;;;;;;;;;;5088358;28;19912;-54
2023/12/16 20:09:10;;;;;;;;;;;;;;;;;;5087975;28;19935;-54
2023/12/16 20:11:36;;;;;;;;;;;;;;;;;;5087319;28;20279;-54
2023/12/16 20:14:02;;;;;;;;;;;;;;;;;;5086563;28;19927;-53
2023/12/16 20:16:28;;;;;;;;;;;;;;;;;;5088032;28;20291;-52
2023/12/16 20:18:54;;;;;;;;;;;;;;;;;;5087796;28;19998;-55
2023/12/16 20:21:20;;;;;;;;;;;;;;;;;;5085460;28;19916;-55
2023/12/16 20:23:46;;;;;;;;;;;;;;;;;;5080624;28;19939;-52
2023/12/16 20:26:12;;;;;;;;;;;;;;;;;;5097683;28;20185;-53
2023/12/16 20:28:38;;;;;;;;;;;;;;;;;;5087911;28;19919;-53
2023/12/16 20:31:04;;;;;;;;;;;;;;;;;;5067943;28;19915;-53
2023/12/16 20:33:31;;;;;;;;;;;;;;;;;;5067568;28;20438;-53
2023/12/16 20:35:57;;;;;;;;;;;;;;;;;;5067866;28;19908;-52
2023/12/16 20:41:08;;;;;;;;;;;;;;;;;;5067507;28;19966;-54
2023/12/16 20:43:34;;;;;;;;;;;;;;;;;;5073752;28;20379;-53
2023/12/16 20:46:00;;;;;;;;;;;;;;;;;;5087699;28;19908;-53
2023/12/16 20:48:26;;;;;;;;;;;;;;;;;;5086499;28;20271;-52
2023/12/16 20:50:52;;;;;;;;;;;;;;;;;;5086274;28;19970;-53
2023/12/16 20:53:18;;;;;;;;;;;;;;;;;;5077566;28;20343;-54
2023/12/16 20:55:44;;;;;;;;;;;;;;;;;;5087407;28;19999;-53
2023/12/16 20:58:10;;;;;;;;;;;;;;;;;;5096181;28;19969;-52
2023/12/16 21:00:36;;;;;;;;;;;;;;;;;;5086415;28;19923;-52
2023/12/16 21:03:02;;;;;;;;;;;;;;;;;;5077407;28;19912;-52
2023/12/16 21:05:28;;;;;;;;;;;;;;;;;;5085134;28;20331;-53
2023/12/16 21:07:53;;;;;;;;;;;;;;;;;;5085889;28;19912;-53
2023/12/16 21:10:19;;;;;;;;;;;;;;;;;;5084432;28;20002;-54
2023/12/16 21:12:45;;;;;;;;;;;;;;;;;;5070795;28;19950;-53
2023/12/16 21:15:11;;;;;;;;;;;;;;;;;;5066944;28;19919;-53
2023/12/16 21:17:37;;;;;;;;;;;;;;;;;;5073846;28;20222;-53
2023/12/16 21:20:03;;;;;;;;;;;;;;;;;;5071955;28;19974;-53
2023/12/16 21:22:29;;;;;;;;;;;;;;;;;;5079075;28;19944;-53
2023/12/16 21:24:55;;;;;;;;;;;;;;;;;;5085536;28;20012;-53
2023/12/16 21:27:21;;;;;;;;;;;;;;;;;;5084914;28;20290;-54
2023/12/16 21:29:46;;;;;;;;;;;;;;;;;;5085156;28;20485;-53
2023/12/16 21:32:12;;;;;;;;;;;;;;;;;;5069133;28;19920;-54
2023/12/16 21:34:38;;;;;;;;;;;;;;;;;;5066549;28;20007;-54
2023/12/16 21:37:04;;;;;;;;;;;;;;;;;;5066594;28;20027;-54
2023/12/16 21:39:31;;;;;;;;;;;;;;;;;;5073396;28;19919;-54
2023/12/16 21:41:56;;;;;;;;;;;;;;;;;;5086824;28;20228;-52
2023/12/16 21:44:22;;;;;;;;;;;;;;;;;;5081781;28;19943;-54
2023/12/16 21:46:48;;;;;;;;;;;;;;;;;;5087562;28;20477;-53
2023/12/16 21:49:14;;;;;;;;;;;;;;;;;;5070201;28;19919;-54
2023/12/16 21:51:40;;;;;;;;;;;;;;;;;;5074370;28;19943;-53
2023/12/16 21:54:07;;;;;;;;;;;;;;;;;;5085474;28;19912;-54
2023/12/16 21:56:33;;;;;;;;;;;;;;;;;;5085327;28;20394;-51
2023/12/16 21:58:58;;;;;;;;;;;;;;;;;;5084893;28;20135;-50
2023/12/16 22:01:24;;;;;;;;;;;;;;;;;;5081788;28;19959;-51
2023/12/16 22:03:50;;;;;;;;;;;;;;;;;;5099513;28;19912;-52
2023/12/16 22:06:16;;;;;;;;;;;;;;;;;;5091532;28;20294;-53
2023/12/16 22:08:42;;;;;;;;;;;;;;;;;;5086386;28;20331;-52
2023/12/16 22:11:08;;;;;;;;;;;;;;;;;;5082992;28;19919;-53
2023/12/16 22:13:34;;;;;;;;;;;;;;;;;;5082418;28;19935;-53
2023/12/16 22:16:01;;;;;;;;;;;;;;;;;;5086820;28;19908;-52
2023/12/16 22:18:27;;;;;;;;;;;;;;;;;;5083766;28;20456;-52
2023/12/16 22:20:52;;;;;;;;;;;;;;;;;;5086594;28;19998;-52
2023/12/16 22:23:18;;;;;;;;;;;;;;;;;;5085190;28;19912;-54
2023/12/16 22:25:44;;;;;;;;;;;;;;;;;;5084653;28;19915;-54
2023/12/16 22:28:10;;;;;;;;;;;;;;;;;;5074862;28;19920;-52
2023/12/16 22:30:36;;;;;;;;;;;;;;;;;;5070014;28;19916;-52
2023/12/16 22:33:02;;;;;;;;;;;;;;;;;;5083351;28;19920;-51
2023/12/16 22:35:28;;;;;;;;;;;;;;;;;;5066060;28;19912;-54
2023/12/16 22:37:53;;;;;;;;;;;;;;;;;;5082972;28;19914;-52
2023/12/16 22:40:19;;;;;;;;;;;;;;;;;;5086717;28;20394;-52